ΕΜΥ, Εθνική Μετεωρολογική Υπηρεσία - Δελτία Καιρού, Προγνώσεις

ΑΕΡΟΝΑΥΤΙΛΙΑ

GREEK AIRPORTS CODES

TAF LGSY 221100Z 2212/2221 09008KT 9999 FEW020 PROB30 TEMPO 2218/2221 5000 RA=

EUROPEAN AIRPORTS CODES

LFPO 221130Z 36009KT 320V040 9999 FEW051TCU BKN051 11/00Q1024 TEMPO 4000 -SHRA SCT030TCU=